Time;durP1;ratioP1;P1;durP2;ratioP2;P2;SDS_P1;SDS_P2;PMS_P1;PMS_P2;Temp;Humidity;BMP_temperature;BMP_pressure;BME280_temperature;BME280_humidity;BME280_pressure;Samples;Min_cycle;Max_cycle;Signal;HPM_P1;HPM_P2
2022/06/14 00:01:59;;;;;;;11.40;6.80;;;22.20;98.60;;;;;;5091190;28;20283;-67
2022/06/14 00:04:26;;;;;;;7.90;5.50;;;22.20;99.00;;;;;;5091796;28;20266;-67
2022/06/14 00:06:55;;;;;;;8.57;5.33;;;22.10;99.10;;;;;;5091157;28;20284;-68
2022/06/14 00:09:22;;;;;;;7.97;5.13;;;22.10;99.40;;;;;;5090788;28;20243;-68
2022/06/14 00:11:48;;;;;;;9.00;6.10;;;22.00;98.90;;;;;;5091448;28;20628;-67
2022/06/14 00:14:15;;;;;;;8.93;5.97;;;22.00;99.50;;;;;;5091263;28;20216;-68
2022/06/14 00:16:42;;;;;;;5.47;4.63;;;21.90;99.20;;;;;;5091048;28;20327;-68
2022/06/14 00:19:09;;;;;;;8.03;4.90;;;21.90;99.10;;;;;;5091034;28;20200;-68
2022/06/14 00:21:37;;;;;;;8.33;5.13;;;21.90;99.10;;;;;;5090643;28;20203;-67
2022/06/14 00:24:06;;;;;;;9.30;5.13;;;21.80;99.10;;;;;;5091403;28;20216;-68
2022/06/14 00:26:33;;;;;;;8.30;4.83;;;21.80;99.40;;;;;;5091253;28;20239;-67
2022/06/14 00:29:00;;;;;;;6.47;5.27;;;21.70;99.40;;;;;;5091336;28;20207;-68
2022/06/14 00:31:28;;;;;;;7.90;5.60;;;21.70;99.40;;;;;;5091182;28;20219;-67
2022/06/14 00:33:55;;;;;;;8.57;5.10;;;21.70;99.50;;;;;;5090977;28;20215;-66
2022/06/14 00:36:25;;;;;;;8.70;4.97;;;21.60;99.50;;;;;;5091334;28;20273;-68
2022/06/14 00:38:52;;;;;;;7.40;5.23;;;21.60;99.60;;;;;;5090571;28;20202;-68
2022/06/14 00:41:33;;;;;;;6.33;5.23;;;21.50;99.60;;;;;;5090709;28;20666;-68
2022/06/14 00:44:00;;;;;;;9.73;5.40;;;21.50;99.70;;;;;;5091067;28;20187;-68
2022/06/14 00:46:30;;;;;;;6.13;5.27;;;21.40;99.70;;;;;;5090727;28;20319;-68
2022/06/14 00:49:04;;;;;;;8.83;5.80;;;21.40;99.90;;;;;;5091468;28;20208;-67
2022/06/14 00:51:35;;;;;;;6.60;5.30;;;21.40;99.90;;;;;;5070723;28;20191;-69
2022/06/14 00:54:09;;;;;;;9.07;5.20;;;21.30;99.90;;;;;;5071057;28;20227;-68
2022/06/14 00:56:44;;;;;;;6.53;5.03;;;21.30;99.90;;;;;;5070770;28;20683;-68
2022/06/14 00:59:15;;;;;;;8.27;4.93;;;21.30;99.90;;;;;;5070997;28;20311;-67
2022/06/14 01:01:44;;;;;;;6.70;5.03;;;21.20;99.90;;;;;;5077037;28;20245;-68
2022/06/14 01:04:15;;;;;;;6.30;4.80;;;21.20;99.90;;;;;;5090102;28;20196;-68
2022/06/14 01:06:51;;;;;;;6.13;4.47;;;21.20;99.90;;;;;;5090978;28;20611;-67
2022/06/14 01:09:22;;;;;;;5.50;4.27;;;21.20;99.90;;;;;;5090582;28;20189;-68
2022/06/14 01:11:54;;;;;;;5.83;4.07;;;21.10;99.90;;;;;;5090493;28;20199;-69
2022/06/14 01:14:28;;;;;;;6.10;4.70;;;21.10;99.90;;;;;;5090754;28;20303;-68
2022/06/14 01:16:55;;;;;;;6.20;4.80;;;21.10;99.90;;;;;;5090976;28;20252;-69
2022/06/14 01:19:24;;;;;;;6.03;4.20;;;21.00;99.90;;;;;;5090782;28;20296;-68
2022/06/14 01:22:15;;;;;;;5.93;4.07;;;21.00;99.90;;;;;;5090781;28;20678;-69
2022/06/14 01:24:44;;;;;;;7.07;4.07;;;21.00;99.90;;;;;;5090027;28;20554;-70
2022/06/14 01:27:14;;;;;;;5.83;4.03;;;21.00;99.90;;;;;;5089797;28;20210;-68
2022/06/14 01:29:45;;;;;;;5.47;4.10;;;21.00;99.90;;;;;;5090136;28;20203;-68
2022/06/14 01:32:15;;;;;;;4.63;4.07;;;21.00;99.90;;;;;;5090420;28;20192;-67
2022/06/14 01:34:47;;;;;;;5.87;4.10;;;21.00;99.90;;;;;;5090176;28;20281;-68
2022/06/14 01:37:14;;;;;;;5.47;3.60;;;21.00;99.90;;;;;;5090852;28;20607;-68
2022/06/14 01:39:41;;;;;;;5.10;3.80;;;21.00;99.90;;;;;;5090555;28;20810;-68
2022/06/14 01:42:21;;;;;;;5.80;4.10;;;21.00;99.90;;;;;;5089984;28;20289;-69
2022/06/14 01:44:58;;;;;;;4.83;3.67;;;21.00;99.90;;;;;;5090341;28;20188;-68
2022/06/14 01:47:32;;;;;;;5.00;4.03;;;21.00;99.90;;;;;;5089933;28;20239;-69
2022/06/14 01:53:17;;;;;;;6.63;4.37;;;21.00;99.90;;;;;;5051092;28;20229;-69
2022/06/14 01:55:49;;;;;;;7.10;4.67;;;21.00;99.90;;;;;;5089900;28;20189;-68
2022/06/14 01:58:23;;;;;;;9.10;5.03;;;20.90;99.90;;;;;;5089951;28;20271;-70
2022/06/14 02:00:54;;;;;;;9.90;5.10;;;20.90;99.90;;;;;;5090614;28;20219;-68
2022/06/14 02:06:21;;;;;;;7.87;4.60;;;20.90;99.90;;;;;;5090367;28;20338;-68
2022/06/14 02:08:54;;;;;;;6.07;4.20;;;20.80;99.90;;;;;;5090453;28;20285;-68
2022/06/14 02:11:27;;;;;;;5.40;4.37;;;20.80;99.90;;;;;;5089619;28;20197;-68
2022/06/14 02:14:05;;;;;;;8.37;5.00;;;20.80;99.90;;;;;;5090437;28;20219;-69
2022/06/14 02:16:40;;;;;;;7.93;4.73;;;20.80;99.90;;;;;;5094048;28;20288;-68
2022/06/14 02:19:11;;;;;;;6.30;4.47;;;20.80;99.90;;;;;;5094074;28;20226;-69
2022/06/14 02:21:42;;;;;;;5.60;4.23;;;20.90;99.90;;;;;;5093229;28;20240;-69
2022/06/14 02:24:13;;;;;;;7.17;4.40;;;20.90;99.90;;;;;;5093820;28;20231;-68
2022/06/14 02:26:45;;;;;;;7.77;4.87;;;21.00;99.90;;;;;;5093820;28;20198;-69
2022/06/14 02:29:18;;;;;;;16.90;5.40;;;21.00;99.90;;;;;;5093659;28;20223;-69
2022/06/14 02:31:59;;;;;;;10.00;4.90;;;21.00;99.90;;;;;;5093585;28;20196;-69
2022/06/14 02:34:30;;;;;;;7.70;4.37;;;21.10;99.90;;;;;;5093421;28;20208;-69
2022/06/14 02:37:05;;;;;;;7.30;4.40;;;21.20;99.90;;;;;;5093267;28;20280;-68
2022/06/14 02:39:36;;;;;;;4.67;4.20;;;21.20;99.90;;;;;;5093355;28;20191;-68
2022/06/14 02:42:07;;;;;;;6.03;4.40;;;21.30;99.90;;;;;;5093595;28;20623;-69
2022/06/14 02:44:41;;;;;;;6.10;4.63;;;21.30;99.90;;;;;;5093282;28;20698;-69
2022/06/14 02:47:14;;;;;;;7.83;5.03;;;21.40;99.90;;;;;;5093345;28;20203;-68
2022/06/14 02:49:48;;;;;;;5.57;4.70;;;21.40;99.90;;;;;;5093265;28;20196;-68
2022/06/14 02:52:19;;;;;;;9.53;5.10;;;21.50;99.90;;;;;;5092668;28;20242;-69
2022/06/14 02:54:53;;;;;;;8.17;5.57;;;21.50;99.90;;;;;;5093547;28;20685;-70
2022/06/14 02:57:26;;;;;;;7.70;5.87;;;21.50;99.90;;;;;;5092870;28;20244;-69
2022/06/14 02:59:59;;;;;;;8.83;5.60;;;21.50;99.90;;;;;;5093294;28;20337;-69
2022/06/14 03:02:30;;;;;;;8.03;5.27;;;21.50;99.90;;;;;;5092965;28;20198;-69
2022/06/14 03:05:05;;;;;;;8.57;5.87;;;21.60;99.90;;;;;;5092951;28;20192;-70
2022/06/14 03:07:38;;;;;;;6.40;5.43;;;21.60;99.90;;;;;;5092218;28;20284;-69
2022/06/14 03:10:07;;;;;;;6.50;4.40;;;21.70;99.90;;;;;;5092677;28;20196;-69
2022/06/14 03:12:41;;;;;;;5.67;4.30;;;21.70;99.90;;;;;;5092648;28;20208;-69
2022/06/14 03:15:16;;;;;;;4.77;4.00;;;21.70;99.90;;;;;;5092743;28;20211;-70
2022/06/14 03:17:54;;;;;;;5.10;3.80;;;21.80;99.90;;;;;;5093039;28;20619;-70
2022/06/14 03:20:34;;;;;;;8.40;4.90;;;21.90;99.90;;;;;;5092718;28;20659;-69
2022/06/14 03:23:12;;;;;;;9.03;6.40;;;21.90;99.90;;;;;;5093002;28;20611;-68
2022/06/14 03:25:44;;;;;;;13.17;7.73;;;21.80;99.90;;;;;;5092212;28;20705;-68
2022/06/14 03:28:15;;;;;;;11.43;7.73;;;21.70;99.90;;;;;;5092117;28;20184;-70
2022/06/14 03:30:48;;;;;;;10.67;7.43;;;21.60;99.90;;;;;;5092708;28;20274;-68
2022/06/14 03:33:21;;;;;;;10.63;7.67;;;21.50;99.90;;;;;;5092091;28;20280;-68
2022/06/14 03:35:51;;;;;;;15.33;8.80;;;21.40;99.90;;;;;;5092406;28;20193;-69
2022/06/14 03:38:24;;;;;;;11.37;7.17;;;21.30;99.90;;;;;;5092472;28;20206;-70
2022/06/14 03:40:52;;;;;;;9.43;7.53;;;21.20;99.90;;;;;;5092445;28;20650;-70
2022/06/14 03:43:20;;;;;;;9.87;7.50;;;21.10;99.90;;;;;;5092066;28;20208;-70
2022/06/14 03:45:57;;;;;;;10.60;7.67;;;21.10;99.90;;;;;;5092671;28;20297;-69
2022/06/14 03:48:24;;;;;;;10.40;6.90;;;21.00;99.90;;;;;;5091407;28;20575;-70
2022/06/14 03:51:00;;;;;;;9.60;7.23;;;20.90;99.90;;;;;;5092324;28;20262;-71
2022/06/14 03:53:43;;;;;;;9.20;6.43;;;20.80;99.90;;;;;;5092080;28;20203;-69
2022/06/14 03:56:25;;;;;;;9.87;6.70;;;20.70;99.90;;;;;;5091491;28;20192;-70
2022/06/14 03:59:13;;;;;;;9.83;7.00;;;20.60;99.90;;;;;;5092060;28;20242;-69
2022/06/14 04:01:48;;;;;;;10.03;6.90;;;20.50;99.90;;;;;;5092523;28;20714;-69
2022/06/14 04:04:32;;;;;;;9.97;7.03;;;20.50;99.90;;;;;;5091841;28;20701;-69
2022/06/14 04:07:10;;;;;;;10.70;6.50;;;20.40;99.90;;;;;;5091726;28;20202;-70
2022/06/14 04:09:45;;;;;;;10.90;6.57;;;20.30;99.90;;;;;;5091837;28;20721;-68
2022/06/14 04:12:22;;;;;;;9.90;6.40;;;20.30;99.90;;;;;;5091457;28;20690;-69
2022/06/14 04:15:11;;;;;;;11.17;6.17;;;20.30;99.90;;;;;;5091908;28;20214;-70
2022/06/14 04:17:47;;;;;;;10.73;5.83;;;20.20;99.90;;;;;;5091665;28;20196;-68
2022/06/14 04:20:22;;;;;;;9.57;5.50;;;20.00;99.90;;;;;;5092158;28;20198;-68
2022/06/14 04:23:02;;;;;;;10.67;5.53;;;19.90;99.90;;;;;;5091813;28;20708;-67
2022/06/14 04:25:35;;;;;;;11.33;4.93;;;19.90;99.90;;;;;;5091212;28;20296;-70
2022/06/14 04:28:15;;;;;;;8.80;4.73;;;19.90;99.90;;;;;;5091451;28;20223;-74
2022/06/14 04:30:53;;;;;;;9.00;4.70;;;20.00;99.90;;;;;;5091748;28;20196;-71
2022/06/14 04:33:25;;;;;;;7.23;4.77;;;19.70;99.90;;;;;;5091355;28;20715;-69
2022/06/14 04:35:57;;;;;;;6.77;4.47;;;19.60;99.90;;;;;;5091277;28;20760;-68
2022/06/14 04:38:29;;;;;;;9.27;4.23;;;19.60;99.90;;;;;;5091147;28;20294;-70
2022/06/14 04:41:01;;;;;;;6.93;4.27;;;19.50;99.90;;;;;;5070996;28;20282;-70
2022/06/14 04:43:34;;;;;;;6.43;4.43;;;19.40;99.90;;;;;;5071296;28;20291;-70
2022/06/14 04:46:08;;;;;;;6.93;4.00;;;19.40;99.90;;;;;;5070608;28;20193;-69
2022/06/14 04:48:42;;;;;;;6.40;4.27;;;19.30;99.90;;;;;;5083726;28;20285;-70
2022/06/14 04:51:16;;;;;;;5.00;3.80;;;19.20;99.90;;;;;;5091040;28;20192;-70
2022/06/14 04:53:50;;;;;;;5.50;3.27;;;19.00;99.90;;;;;;5090694;28;20222;-69
2022/06/14 04:56:23;;;;;;;3.50;3.20;;;18.80;99.90;;;;;;5070702;28;20653;-68
2022/06/14 04:58:55;;;;;;;4.80;3.40;;;18.80;99.90;;;;;;5084741;28;20284;-70
2022/06/14 05:01:26;;;;;;;4.07;3.27;;;18.80;99.90;;;;;;5091893;28;20664;-69
2022/06/14 05:03:59;;;;;;;5.07;3.03;;;18.70;99.90;;;;;;5091797;28;20215;-69
2022/06/14 05:06:30;;;;;;;5.00;3.10;;;18.60;99.90;;;;;;5090738;28;20616;-68
2022/06/14 05:09:01;;;;;;;4.13;3.00;;;18.50;99.90;;;;;;5088868;28;20197;-69
2022/06/14 05:11:36;;;;;;;3.57;2.90;;;18.60;99.90;;;;;;5088083;28;20212;-70
2022/06/14 05:14:08;;;;;;;3.60;2.90;;;18.60;99.90;;;;;;5087584;28;20299;-69
2022/06/14 05:16:38;;;;;;;3.80;2.90;;;18.60;99.90;;;;;;5090197;28;20284;-69
2022/06/14 05:19:14;;;;;;;4.53;3.30;;;18.50;99.90;;;;;;5089864;28;20225;-69
2022/06/14 05:21:46;;;;;;;4.77;3.10;;;18.60;99.90;;;;;;5088084;28;20644;-69
2022/06/14 05:24:13;;;;;;;4.80;2.80;;;18.60;99.90;;;;;;5090301;28;20285;-68
2022/06/14 05:26:56;;;;;;;6.90;2.80;;;18.60;99.90;;;;;;5090141;28;20289;-68
2022/06/14 05:29:30;;;;;;;5.27;2.80;;;18.60;99.90;;;;;;5088102;28;20294;-69
2022/06/14 05:32:05;;;;;;;4.17;2.50;;;18.60;99.90;;;;;;5090173;28;20221;-71
2022/06/14 05:34:48;;;;;;;2.73;2.50;;;18.50;99.90;;;;;;5089953;28;20213;-71
2022/06/14 05:37:25;;;;;;;7.03;3.03;;;18.60;99.90;;;;;;5089372;28;20255;-68
2022/06/14 05:39:58;;;;;;;3.77;2.40;;;18.60;99.90;;;;;;5090292;28;20550;-70
2022/06/14 05:42:30;;;;;;;3.97;2.80;;;18.60;99.90;;;;;;5090838;28;20281;-74
2022/06/14 05:45:01;;;;;;;6.13;2.50;;;18.50;99.90;;;;;;5089653;28;20558;-71
2022/06/14 05:47:33;;;;;;;2.90;2.40;;;18.50;99.90;;;;;;5087736;28;20223;-72
2022/06/14 05:50:05;;;;;;;3.17;2.00;;;18.60;99.90;;;;;;5091637;28;20200;-70
2022/06/14 05:52:36;;;;;;;3.37;1.80;;;18.70;99.90;;;;;;5091959;28;20236;-70
2022/06/14 05:55:10;;;;;;;3.33;1.87;;;18.80;99.90;;;;;;5094138;28;20297;-70
2022/06/14 05:57:42;;;;;;;4.20;1.60;;;19.00;99.90;;;;;;5094152;28;20601;-68
2022/06/14 06:00:13;;;;;;;8.17;1.83;;;19.20;99.90;;;;;;5091536;28;20199;-70
2022/06/14 06:02:46;;;;;;;4.67;1.63;;;19.00;99.90;;;;;;5094272;28;20206;-68
2022/06/14 06:05:21;;;;;;;5.87;2.20;;;18.90;99.90;;;;;;5092335;28;20649;-68
2022/06/14 06:07:54;;;;;;;3.53;1.67;;;18.80;99.90;;;;;;5091126;28;20598;-67
2022/06/14 06:10:26;;;;;;;1.60;1.50;;;18.70;99.90;;;;;;5094132;28;20687;-68
2022/06/14 06:13:00;;;;;;;2.33;1.87;;;18.50;99.90;;;;;;5091762;28;20194;-70
2022/06/14 06:15:29;;;;;;;2.93;2.00;;;18.00;99.90;;;;;;5093853;28;20209;-69
2022/06/14 06:18:01;;;;;;;2.27;1.90;;;17.60;99.90;;;;;;5091122;28;20205;-68
2022/06/14 06:20:34;;;;;;;4.43;1.97;;;17.30;99.90;;;;;;5093624;28;20196;-69
2022/06/14 06:23:11;;;;;;;2.13;1.90;;;17.20;99.90;;;;;;5093206;28;20205;-69
2022/06/14 06:25:41;;;;;;;2.30;2.10;;;17.10;99.90;;;;;;5094933;28;20188;-69
2022/06/14 06:28:13;;;;;;;5.63;2.23;;;17.00;99.90;;;;;;5093780;28;20213;-72
2022/06/14 06:30:46;;;;;;;2.50;2.10;;;16.90;99.90;;;;;;5093749;28;20536;-68
2022/06/14 06:33:16;;;;;;;3.83;2.30;;;16.90;99.90;;;;;;5091768;28;20662;-70
2022/06/14 06:35:50;;;;;;;3.03;2.30;;;16.90;99.90;;;;;;5093729;28;20224;-68
2022/06/14 06:38:31;;;;;;;3.27;2.30;;;16.80;99.90;;;;;;5092274;28;20212;-70
2022/06/14 06:43:52;;;;;;;2.90;2.43;;;16.90;99.90;;;;;;5092931;28;20219;-69
2022/06/14 06:46:24;;;;;;;3.93;2.53;;;16.90;99.90;;;;;;5094500;28;20205;-70
2022/06/14 06:48:56;;;;;;;3.17;2.13;;;16.90;99.90;;;;;;5094199;28;20793;-69
2022/06/14 06:51:34;;;;;;;2.97;2.33;;;17.00;99.90;;;;;;5094279;28;20207;-69
2022/06/14 06:54:06;;;;;;;3.10;2.50;;;17.00;99.90;;;;;;5094245;28;20661;-70
2022/06/14 06:56:39;;;;;;;3.07;2.60;;;17.10;99.90;;;;;;5094508;28;20217;-67
2022/06/14 06:59:13;;;;;;;3.13;2.83;;;17.10;99.90;;;;;;5093639;28;20203;-67
2022/06/14 07:01:42;;;;;;;2.97;2.30;;;17.20;99.90;;;;;;5092253;28;20192;-68
2022/06/14 07:04:19;;;;;;;3.40;2.50;;;17.10;99.90;;;;;;5092438;28;20218;-69
2022/06/14 07:06:53;;;;;;;3.83;2.30;;;17.00;99.90;;;;;;5093599;28;20280;-68
2022/06/14 07:09:26;;;;;;;3.33;2.30;;;17.00;99.90;;;;;;5094238;28;20597;-67
2022/06/14 07:11:57;;;;;;;4.17;2.97;;;17.10;99.90;;;;;;5093470;28;20275;-67
2022/06/14 07:14:28;;;;;;;5.53;2.50;;;17.30;99.90;;;;;;5093394;28;20188;-70
2022/06/14 07:17:02;;;;;;;4.53;2.50;;;17.40;99.90;;;;;;5093513;28;20192;-70
2022/06/14 07:19:38;;;;;;;3.70;2.40;;;17.50;99.90;;;;;;5093821;28;20191;-71
2022/06/14 07:22:13;;;;;;;2.77;2.57;;;17.60;99.90;;;;;;5093389;28;20658;-70
2022/06/14 07:24:53;;;;;;;3.10;2.57;;;17.60;99.90;;;;;;5093381;28;20188;-70
2022/06/14 07:27:23;;;;;;;2.90;2.50;;;17.80;99.90;;;;;;5093220;28;20701;-69
2022/06/14 07:29:57;;;;;;;2.87;2.30;;;17.90;99.90;;;;;;5093015;28;20192;-69
2022/06/14 07:32:28;;;;;;;4.70;2.40;;;17.90;99.90;;;;;;5091892;28;20284;-69
2022/06/14 07:34:56;;;;;;;3.27;2.40;;;18.00;99.90;;;;;;5091529;28;20695;-69
2022/06/14 07:37:32;;;;;;;6.67;3.60;;;18.00;99.90;;;;;;5092920;28;20201;-69
2022/06/14 07:40:04;;;;;;;7.97;3.03;;;18.00;99.90;;;;;;5092994;28;20279;-68
2022/06/14 07:42:38;;;;;;;1.90;1.70;;;18.00;99.90;;;;;;5086087;28;20298;-70
2022/06/14 07:45:10;;;;;;;2.40;1.73;;;18.00;99.90;;;;;;5091837;28;20188;-69
2022/06/14 07:47:42;;;;;;;2.40;2.20;;;18.10;99.90;;;;;;5092855;28;20194;-68
2022/06/14 07:50:15;;;;;;;3.17;1.93;;;18.20;99.90;;;;;;5092887;28;20615;-68
2022/06/14 07:52:48;;;;;;;6.13;2.40;;;18.30;99.90;;;;;;5092593;28;20193;-69
2022/06/14 07:55:20;;;;;;;4.93;2.20;;;18.50;99.90;;;;;;5092720;28;20209;-68
2022/06/14 07:57:51;;;;;;;2.30;1.80;;;18.60;99.90;;;;;;5091677;28;20231;-69
2022/06/14 08:03:13;;;;;;;2.20;1.73;;;18.90;99.90;;;;;;5092814;28;20657;-70
2022/06/14 08:05:46;;;;;;;2.10;1.50;;;19.10;99.90;;;;;;5092779;28;20185;-71
2022/06/14 08:08:20;;;;;;;2.30;1.50;;;19.10;99.90;;;;;;5092491;28;20229;-68
2022/06/14 08:10:52;;;;;;;1.60;1.50;;;19.20;99.90;;;;;;5092068;28;20224;-69
2022/06/14 08:13:23;;;;;;;3.73;1.63;;;19.30;99.90;;;;;;5092215;28;20184;-67
2022/06/14 08:15:52;;;;;;;2.70;1.63;;;19.40;99.90;;;;;;5091827;28;20215;-69
2022/06/14 08:18:26;;;;;;;1.53;1.40;;;19.20;99.90;;;;;;5092731;28;20296;-71
2022/06/14 08:20:57;;;;;;;3.47;1.70;;;19.20;99.90;;;;;;5092243;28;20187;-69
2022/06/14 08:23:29;;;;;;;2.03;1.70;;;19.20;99.90;;;;;;5092467;28;20698;-68
2022/06/14 08:26:03;;;;;;;2.43;1.70;;;19.00;99.90;;;;;;5091516;28;20193;-67
2022/06/14 08:28:37;;;;;;;2.03;1.70;;;18.90;99.90;;;;;;5091215;28;20674;-70
2022/06/14 08:31:11;;;;;;;2.20;1.70;;;18.70;99.90;;;;;;5092030;28;20278;-69
2022/06/14 08:33:42;;;;;;;2.17;1.80;;;18.70;99.90;;;;;;5091509;28;20282;-70
2022/06/14 08:36:14;;;;;;;2.17;1.80;;;18.60;99.90;;;;;;5092215;28;20256;-72
2022/06/14 08:38:49;;;;;;;4.67;1.60;;;18.50;99.90;;;;;;5091436;28;20230;-69
2022/06/14 08:41:40;;;;;;;3.33;1.70;;;18.40;99.90;;;;;;5091310;28;20211;-69
2022/06/14 08:44:12;;;;;;;2.23;1.50;;;18.40;99.90;;;;;;5091770;28;20631;-70
2022/06/14 08:46:42;;;;;;;2.60;1.80;;;18.50;99.90;;;;;;5091619;28;20196;-69
2022/06/14 08:49:12;;;;;;;1.77;1.67;;;18.40;99.90;;;;;;5091132;28;20188;-68
2022/06/14 08:51:59;;;;;;;2.80;1.60;;;18.40;99.90;;;;;;5090199;28;20290;-68
2022/06/14 08:54:52;;;;;;;2.70;1.53;;;18.50;99.90;;;;;;5090696;28;20291;-69
2022/06/14 08:57:42;;;;;;;1.60;1.50;;;18.70;99.90;;;;;;5062233;28;20243;-68
2022/06/14 09:00:20;;;;;;;1.80;1.60;;;18.80;99.90;;;;;;5041594;28;20201;-67
2022/06/14 09:03:36;;;;;;;1.63;1.53;;;18.90;99.90;;;;;;5071099;28;20185;-68
2022/06/14 09:06:44;;;;;;;2.80;1.90;;;18.90;99.90;;;;;;5022995;28;20658;-70
2022/06/14 09:09:46;;;;;;;1.97;1.70;;;19.00;99.90;;;;;;5048757;28;20536;-68
2022/06/14 09:13:02;;;;;;;2.30;1.70;;;19.00;99.90;;;;;;5048310;28;20240;-69
2022/06/14 09:15:55;;;;;;;2.93;1.60;;;18.90;99.90;;;;;;5070416;28;20215;-67
2022/06/14 09:18:39;;;;;;;3.43;1.50;;;18.90;99.90;;;;;;5074026;28;20867;-67
2022/06/14 09:21:24;;;;;;;2.47;1.70;;;19.00;99.90;;;;;;5091282;28;20264;-66
2022/06/14 09:24:11;;;;;;;1.60;1.50;;;19.00;99.90;;;;;;5090382;28;20197;-71
2022/06/14 09:27:05;;;;;;;2.20;1.60;;;19.00;99.90;;;;;;5083656;28;20222;-67
2022/06/14 09:30:01;;;;;;;4.40;1.80;;;18.90;99.90;;;;;;5086408;28;20278;-68
2022/06/14 09:33:14;;;;;;;1.80;1.47;;;19.10;99.90;;;;;;5086896;28;20283;-70
2022/06/14 09:36:15;;;;;;;1.83;1.60;;;19.30;99.90;;;;;;5020346;28;20299;-70
2022/06/14 09:39:11;;;;;;;1.90;1.67;;;19.30;99.90;;;;;;5088070;28;20272;-67
2022/06/14 09:42:23;;;;;;;3.07;1.70;;;19.40;99.90;;;;;;5074165;28;20225;-68
2022/06/14 09:45:28;;;;;;;3.10;1.70;;;19.40;99.90;;;;;;5090727;28;20263;-69
2022/06/14 09:48:29;;;;;;;1.97;1.67;;;19.30;99.90;;;;;;5090890;28;20207;-67
2022/06/14 09:51:34;;;;;;;1.83;1.50;;;19.20;99.90;;;;;;5091095;28;20616;-69
2022/06/14 09:54:26;;;;;;;2.90;1.77;;;19.30;99.90;;;;;;5088992;28;20627;-69
2022/06/14 09:57:15;;;;;;;3.73;1.73;;;19.40;99.90;;;;;;5065649;28;20224;-70
2022/06/14 10:00:07;;;;;;;2.67;1.70;;;19.60;99.90;;;;;;5090658;28;20287;-67
2022/06/14 10:02:52;;;;;;;1.80;1.70;;;19.70;99.90;;;;;;5089425;28;20760;-66
2022/06/14 10:05:35;;;;;;;1.90;1.73;;;19.90;99.90;;;;;;5083864;28;20218;-66
2022/06/14 10:08:23;;;;;;;2.90;1.73;;;20.00;99.90;;;;;;5091112;28;20196;-66
2022/06/14 10:11:12;;;;;;;2.93;1.60;;;20.10;99.90;;;;;;5089904;28;20591;-68
2022/06/14 10:14:10;;;;;;;2.53;1.70;;;20.20;99.90;;;;;;5090665;28;20636;-70
2022/06/14 10:17:04;;;;;;;2.63;1.90;;;20.30;99.90;;;;;;5081499;28;20215;-67
2022/06/14 10:19:54;;;;;;;4.03;1.90;;;20.40;99.90;;;;;;5083056;28;20228;-67
2022/06/14 10:22:30;;;;;;;3.27;2.03;;;20.40;99.90;;;;;;5089813;28;20223;-68
2022/06/14 10:25:00;;;;;;;2.53;1.60;;;20.50;99.90;;;;;;5088393;28;20190;-67
2022/06/14 10:30:41;;;;;;;2.70;1.80;;;20.60;99.90;;;;;;5090121;28;20286;-67
2022/06/14 10:33:31;;;;;;;2.47;1.80;;;20.60;99.90;;;;;;5091492;28;20720;-66
2022/06/14 10:36:14;;;;;;;2.17;1.90;;;20.50;99.90;;;;;;5091250;28;20632;-69
2022/06/14 10:39:16;;;;;;;4.73;2.10;;;20.50;99.90;;;;;;5093440;28;20275;-67
2022/06/14 10:41:50;;;;;;;3.37;1.90;;;20.60;99.90;;;;;;5062097;28;20235;-68
2022/06/14 10:44:26;;;;;;;4.13;2.07;;;20.70;99.90;;;;;;5093590;28;20622;-66
2022/06/14 10:47:03;;;;;;;3.67;2.10;;;20.80;99.90;;;;;;5093610;28;20271;-67
2022/06/14 10:50:03;;;;;;;4.53;2.10;;;20.80;99.90;;;;;;5092413;28;20595;-68
2022/06/14 10:52:55;;;;;;;2.13;1.90;;;20.70;99.90;;;;;;5091165;28;20200;-68
2022/06/14 10:55:49;;;;;;;2.30;1.80;;;20.80;99.90;;;;;;5080737;28;20251;-72
2022/06/14 10:58:36;;;;;;;2.70;2.00;;;21.00;99.90;;;;;;5092415;28;20228;-69
2022/06/14 11:01:17;;;;;;;3.23;2.10;;;21.10;99.90;;;;;;5093075;28;20195;-72
2022/06/14 11:03:59;;;;;;;5.90;2.20;;;21.10;99.90;;;;;;5092123;28;20251;-69
2022/06/14 11:06:55;;;;;;;4.80;1.93;;;21.30;99.90;;;;;;5092907;28;20190;-68
2022/06/14 11:09:35;;;;;;;7.27;2.10;;;21.30;99.90;;;;;;5075661;28;20280;-70
2022/06/14 11:12:19;;;;;;;3.80;1.80;;;21.40;99.90;;;;;;5093727;28;20279;-70
2022/06/14 11:14:56;;;;;;;3.40;1.97;;;21.50;99.90;;;;;;5093457;28;20231;-71
2022/06/14 11:17:37;;;;;;;2.80;1.80;;;21.60;99.90;;;;;;5093157;28;20209;-69
2022/06/14 11:20:16;;;;;;;5.43;1.97;;;21.40;99.90;;;;;;5093113;28;20218;-70
2022/06/14 11:22:46;;;;;;;3.30;1.90;;;21.40;99.90;;;;;;5093621;28;20642;-70
2022/06/14 11:25:28;;;;;;;3.53;2.00;;;21.50;99.90;;;;;;5093159;28;20607;-70
2022/06/14 11:28:08;;;;;;;2.30;2.00;;;21.50;99.90;;;;;;5093421;28;20189;-68
2022/06/14 11:30:43;;;;;;;4.43;2.07;;;21.50;99.90;;;;;;5092951;28;20223;-70
2022/06/14 11:33:20;;;;;;;4.27;2.10;;;21.70;99.90;;;;;;5092094;28;20278;-70
2022/06/14 11:36:02;;;;;;;3.23;2.00;;;21.80;99.90;;;;;;5089699;28;20563;-68
2022/06/14 11:38:46;;;;;;;2.53;1.80;;;21.90;99.60;;;;;;5091935;28;20249;-71
2022/06/14 11:41:18;;;;;;;2.93;1.90;;;21.90;99.90;;;;;;5092331;28;20299;-69
2022/06/14 11:43:56;;;;;;;4.37;2.50;;;21.70;98.50;;;;;;5091815;28;20594;-68
2022/06/14 11:46:44;;;;;;;4.33;1.90;;;21.60;97.70;;;;;;5090682;28;20185;-68
2022/06/14 11:49:17;;;;;;;3.50;2.30;;;21.60;98.20;;;;;;5091872;28;20223;-72
2022/06/14 11:51:54;;;;;;;4.27;2.20;;;21.60;98.60;;;;;;5092847;28;20277;-69
2022/06/14 11:54:25;;;;;;;5.30;2.33;;;21.70;98.70;;;;;;5092128;28;20243;-72
2022/06/14 11:57:05;;;;;;;4.43;2.30;;;21.80;98.10;;;;;;5092055;28;20208;-68
2022/06/14 12:00:07;;;;;;;4.03;2.13;;;21.80;97.70;;;;;;5091121;28;20188;-68
2022/06/14 12:02:43;;;;;;;4.10;2.10;;;21.80;97.30;;;;;;5092274;28;20311;-67
2022/06/14 12:05:23;;;;;;;3.30;2.00;;;21.90;97.20;;;;;;5092701;28;20693;-70
2022/06/14 12:08:02;;;;;;;2.50;1.83;;;21.80;96.60;;;;;;5092532;28;20220;-68
2022/06/14 12:10:49;;;;;;;5.40;2.03;;;21.70;96.80;;;;;;5089045;28;20215;-68
2022/06/14 12:13:42;;;;;;;3.77;1.90;;;21.50;96.70;;;;;;5092473;28;20205;-71
2022/06/14 12:16:14;;;;;;;3.30;2.30;;;21.50;96.60;;;;;;5081553;28;20280;-69
2022/06/14 12:18:46;;;;;;;3.87;2.60;;;21.60;97.30;;;;;;5089428;28;20192;-68
2022/06/14 12:21:22;;;;;;;3.17;2.30;;;21.70;97.20;;;;;;5090637;28;20238;-67
2022/06/14 12:23:52;;;;;;;3.17;1.97;;;21.80;97.30;;;;;;5090541;28;20191;-68
2022/06/14 12:29:12;;;;;;;4.03;2.37;;;21.70;97.70;;;;;;5087003;28;20221;-67
2022/06/14 12:31:52;;;;;;;2.90;1.93;;;21.70;97.90;;;;;;5092249;28;20287;-68
2022/06/14 12:34:24;;;;;;;3.07;2.00;;;21.60;98.20;;;;;;5091887;28;20275;-68
2022/06/14 12:37:04;;;;;;;4.53;2.10;;;21.60;98.20;;;;;;5091098;28;20681;-67
2022/06/14 12:39:35;;;;;;;3.87;2.13;;;21.50;97.40;;;;;;5091402;28;20557;-67
2022/06/14 12:42:07;;;;;;;4.30;2.30;;;21.60;97.20;;;;;;5091502;28;20198;-68
2022/06/14 12:44:51;;;;;;;3.57;2.10;;;21.70;96.50;;;;;;5091887;28;20184;-67
2022/06/14 12:47:23;;;;;;;4.57;2.37;;;21.70;96.80;;;;;;5091980;28;20187;-67
2022/06/14 12:49:55;;;;;;;5.00;2.37;;;21.90;97.60;;;;;;5092109;28;20289;-68
2022/06/14 12:52:28;;;;;;;6.97;2.10;;;21.90;97.20;;;;;;5092004;28;20783;-69
2022/06/14 12:54:59;;;;;;;5.70;2.50;;;22.00;96.80;;;;;;5091584;28;20291;-69
2022/06/14 12:57:44;;;;;;;3.00;2.30;;;21.90;96.10;;;;;;5091734;28;20236;-67
2022/06/14 13:00:21;;;;;;;6.63;2.20;;;21.90;96.30;;;;;;5091462;28;20188;-68
2022/06/14 13:02:56;;;;;;;3.30;2.20;;;21.80;97.00;;;;;;5091452;28;20235;-70
2022/06/14 13:05:27;;;;;;;5.70;2.20;;;21.90;96.40;;;;;;5091716;28;20184;-68
2022/06/14 13:08:11;;;;;;;4.47;2.23;;;22.00;95.80;;;;;;5091221;28;20195;-68
2022/06/14 13:10:49;;;;;;;4.23;1.90;;;22.10;95.20;;;;;;5091167;28;20198;-68
2022/06/14 13:13:44;;;;;;;3.60;1.67;;;22.00;91.50;;;;;;5091002;28;20275;-68
2022/06/14 13:16:23;;;;;;;2.77;1.60;;;22.00;91.50;;;;;;5091203;28;20192;-68
2022/06/14 13:18:59;;;;;;;2.30;1.60;;;21.90;90.80;;;;;;5091025;28;20513;-69
2022/06/14 13:22:04;;;;;;;3.20;2.00;;;22.00;90.50;;;;;;5090912;28;20234;-70
2022/06/14 13:24:44;;;;;;;4.90;1.57;;;22.00;90.10;;;;;;5090848;28;20911;-69
2022/06/14 13:27:21;;;;;;;2.10;1.60;;;22.00;88.70;;;;;;5091530;28;20188;-67
2022/06/14 13:29:57;;;;;;;2.87;1.50;;;21.90;89.30;;;;;;5091191;28;20192;-69
2022/06/14 13:32:49;;;;;;;7.57;1.83;;;22.00;90.30;;;;;;5091393;28;20245;-69
2022/06/14 13:35:28;;;;;;;2.17;1.63;;;22.10;88.60;;;;;;5091030;28;20257;-68
2022/06/14 13:38:00;;;;;;;2.63;1.67;;;22.00;88.50;;;;;;5091370;28;20219;-69
2022/06/14 13:40:33;;;;;;;4.20;1.63;;;21.90;88.30;;;;;;5091190;28;20233;-69
2022/06/14 13:43:09;;;;;;;2.93;1.67;;;21.80;88.60;;;;;;5091283;28;20338;-69
2022/06/14 13:45:43;;;;;;;3.53;1.60;;;21.80;89.20;;;;;;5089867;28;20656;-70
2022/06/14 13:48:19;;;;;;;3.30;1.90;;;21.90;89.00;;;;;;5087896;28;20286;-70
2022/06/14 13:50:53;;;;;;;6.63;2.10;;;21.90;90.50;;;;;;5089605;28;20694;-68
2022/06/14 13:53:25;;;;;;;2.83;1.90;;;22.00;90.50;;;;;;5089692;28;20188;-68